Time;durP1;ratioP1;P1;durP2;ratioP2;P2;SDS_P1;SDS_P2;PMS_P1;PMS_P2;Temp;Humidity;BMP_temperature;BMP_pressure;BME280_temperature;BME280_humidity;BME280_pressure;Samples;Min_cycle;Max_cycle;Signal;HPM_P1;HPM_P2
2022/03/12 00:02:04;;;;;;;8.03;5.53;;;4.50;1.00;;;;;;5066823;28;20796;-59
2022/03/12 00:04:30;;;;;;;8.43;5.77;;;4.50;1.00;;;;;;5072566;28;20184;-59
2022/03/12 00:06:55;;;;;;;7.50;6.13;;;4.50;1.00;;;;;;5072669;28;20621;-59
2022/03/12 00:09:21;;;;;;;8.90;6.30;;;4.40;1.00;;;;;;5073655;28;20222;-58
2022/03/12 00:11:51;;;;;;;7.63;5.83;;;4.40;1.00;;;;;;5073811;28;20215;-59
2022/03/12 00:14:22;;;;;;;9.83;6.00;;;4.40;1.00;;;;;;5072629;28;20783;-59
2022/03/12 00:16:49;;;;;;;8.50;5.83;;;4.50;1.00;;;;;;5072472;28;20433;-59
2022/03/12 00:19:15;;;;;;;7.73;6.90;;;4.50;1.00;;;;;;5074344;28;20441;-59
2022/03/12 00:21:42;;;;;;;6.90;5.10;;;4.50;1.00;;;;;;5072342;28;20953;-58
2022/03/12 00:24:12;;;;;;;7.83;5.67;;;4.50;1.00;;;;;;5074661;28;20444;-59
2022/03/12 00:26:40;;;;;;;8.07;5.50;;;4.40;1.00;;;;;;5067424;28;20802;-59
2022/03/12 00:29:14;;;;;;;8.63;5.70;;;4.30;1.00;;;;;;5070797;28;20514;-58
2022/03/12 00:31:41;;;;;;;7.63;5.33;;;4.30;1.00;;;;;;5073014;28;20473;-59
2022/03/12 00:34:07;;;;;;;7.90;5.93;;;4.40;1.00;;;;;;5074048;28;20446;-59
2022/03/12 00:36:32;;;;;;;7.53;6.00;;;4.30;1.00;;;;;;5078380;28;20438;-59
2022/03/12 00:38:59;;;;;;;8.10;5.93;;;4.40;1.00;;;;;;5073184;28;20183;-59
2022/03/12 00:41:26;;;;;;;6.80;5.80;;;;;;;;;;5072237;28;20918;-57
2022/03/12 00:43:52;;;;;;;8.10;5.60;;;4.30;1.00;;;;;;5054773;28;20441;-58
2022/03/12 00:46:19;;;;;;;9.33;6.40;;;;;;;;;;5073185;28;20441;-59
2022/03/12 00:48:45;;;;;;;8.53;6.47;;;4.20;1.00;;;;;;5071568;28;21022;-59
2022/03/12 00:51:11;;;;;;;8.30;5.83;;;4.20;1.00;;;;;;5073836;28;20473;-59
2022/03/12 00:53:38;;;;;;;7.00;5.53;;;4.20;1.00;;;;;;5071376;28;20175;-58
2022/03/12 00:56:08;;;;;;;8.40;5.53;;;4.20;1.00;;;;;;5073986;28;20175;-59
2022/03/12 00:58:35;;;;;;;9.20;5.60;;;4.20;1.00;;;;;;5072151;28;20434;-58
2022/03/12 01:01:02;;;;;;;7.20;5.10;;;;;;;;;;5076663;28;20565;-59
2022/03/12 01:03:32;;;;;;;7.53;5.17;;;4.20;1.00;;;;;;5075541;28;20441;-58
2022/03/12 01:06:00;;;;;;;12.70;6.27;;;4.10;1.00;;;;;;5072366;28;20438;-60
2022/03/12 01:08:27;;;;;;;7.43;5.20;;;4.30;1.00;;;;;;5071182;28;20438;-58
2022/03/12 01:10:56;;;;;;;8.17;5.80;;;4.20;1.00;;;;;;5075995;28;20540;-60
2022/03/12 01:13:22;;;;;;;7.40;5.97;;;4.20;1.00;;;;;;5071544;28;20430;-58
2022/03/12 01:15:48;;;;;;;6.53;5.00;;;;;;;;;;5070983;28;20445;-59
2022/03/12 01:18:16;;;;;;;8.83;5.53;;;4.20;1.00;;;;;;5072899;28;20171;-58
2022/03/12 01:20:42;;;;;;;7.93;5.57;;;4.20;1.00;;;;;;5071570;28;20441;-59
2022/03/12 01:23:10;;;;;;;7.80;5.70;;;4.20;1.00;;;;;;5072276;28;20441;-59
2022/03/12 01:25:36;;;;;;;11.07;5.80;;;4.20;1.00;;;;;;5067390;28;20780;-58
2022/03/12 01:28:01;;;;;;;6.80;5.20;;;4.10;1.00;;;;;;5070091;28;20543;-59
2022/03/12 01:30:30;;;;;;;9.40;6.17;;;4.00;1.00;;;;;;5071188;28;20294;-59
2022/03/12 01:32:56;;;;;;;8.00;5.43;;;4.00;1.00;;;;;;5071715;28;20517;-59
2022/03/12 01:35:24;;;;;;;8.97;6.07;;;4.10;1.00;;;;;;5071178;28;20433;-59
2022/03/12 01:37:49;;;;;;;7.73;5.73;;;4.10;1.00;;;;;;5073943;28;20429;-59
2022/03/12 01:40:15;;;;;;;8.67;5.43;;;4.00;1.00;;;;;;5074374;28;20931;-58
2022/03/12 01:42:43;;;;;;;8.13;4.80;;;4.00;1.00;;;;;;5071148;28;20652;-58
2022/03/12 01:45:10;;;;;;;7.27;5.10;;;4.00;1.00;;;;;;5071631;28;20270;-57
2022/03/12 01:47:36;;;;;;;9.90;5.00;;;4.00;1.00;;;;;;5072457;28;20461;-59
2022/03/12 01:50:03;;;;;;;8.50;5.10;;;4.00;1.00;;;;;;5075079;28;20499;-59
2022/03/12 01:52:30;;;;;;;7.47;4.23;;;4.00;1.00;;;;;;5077943;28;20438;-58
2022/03/12 01:54:56;;;;;;;5.93;4.93;;;4.00;1.00;;;;;;5075573;28;20425;-59
2022/03/12 01:57:22;;;;;;;4.90;4.40;;;4.00;1.00;;;;;;5076151;28;20491;-58
2022/03/12 01:59:48;;;;;;;6.37;4.00;;;4.00;1.00;;;;;;5074488;28;20556;-59
2022/03/12 02:02:15;;;;;;;6.20;4.97;;;4.00;1.00;;;;;;5077100;28;20426;-59
2022/03/12 02:04:49;;;;;;;5.97;5.00;;;4.00;1.00;;;;;;5076098;28;20465;-58
2022/03/12 02:07:16;;;;;;;7.20;5.27;;;3.90;1.00;;;;;;5075502;28;20513;-59
2022/03/12 02:09:41;;;;;;;7.03;4.57;;;3.90;1.00;;;;;;5075123;28;20444;-59
2022/03/12 02:12:07;;;;;;;10.13;4.43;;;3.90;1.00;;;;;;5076091;28;20433;-60
2022/03/12 02:14:33;;;;;;;6.37;5.20;;;;;;;;;;5074908;28;20172;-59
2022/03/12 02:17:07;;;;;;;6.53;4.37;;;4.00;1.00;;;;;;5074452;28;20928;-58
2022/03/12 02:19:33;;;;;;;9.00;5.33;;;3.90;1.00;;;;;;5075176;28;20449;-58
2022/03/12 02:22:05;;;;;;;7.07;4.70;;;4.00;1.00;;;;;;5056283;28;20518;-58
2022/03/12 02:24:34;;;;;;;6.80;4.17;;;4.00;1.00;;;;;;5074601;28;20441;-57
2022/03/12 02:27:01;;;;;;;4.63;4.00;;;4.00;1.00;;;;;;5076864;28;21255;-58
2022/03/12 02:29:27;;;;;;;6.60;4.83;;;3.90;1.00;;;;;;5073834;28;20437;-58
2022/03/12 02:31:56;;;;;;;6.60;4.80;;;3.90;1.00;;;;;;5074818;28;20519;-60
2022/03/12 02:34:26;;;;;;;7.07;4.70;;;4.00;1.00;;;;;;5074923;28;20436;-59
2022/03/12 02:36:53;;;;;;;5.70;3.97;;;3.90;1.00;;;;;;5073221;28;20931;-58
2022/03/12 02:39:20;;;;;;;6.70;4.23;;;4.00;1.00;;;;;;5072301;28;20451;-58
2022/03/12 02:41:47;;;;;;;6.80;4.30;;;4.00;1.00;;;;;;5072633;28;20446;-59
2022/03/12 02:44:22;;;;;;;6.17;4.63;;;3.90;1.00;;;;;;5071899;28;20469;-59
2022/03/12 02:47:15;;;;;;;6.20;4.80;;;3.90;1.00;;;;;;5072086;28;20457;-59
2022/03/12 02:49:46;;;;;;;8.23;4.70;;;3.90;1.00;;;;;;5068336;28;20453;-59
2022/03/12 02:52:13;;;;;;;6.70;4.57;;;3.90;1.00;;;;;;5075073;28;20961;-58
2022/03/12 02:54:40;;;;;;;6.87;4.30;;;3.80;1.00;;;;;;5073956;28;20473;-58
2022/03/12 02:57:06;;;;;;;11.83;4.90;;;3.80;1.00;;;;;;5072722;28;20434;-58
2022/03/12 02:59:33;;;;;;;6.87;4.60;;;3.90;1.00;;;;;;5072373;28;20449;-58
2022/03/12 03:02:03;;;;;;;6.67;4.40;;;3.90;1.00;;;;;;5072203;28;20938;-58
2022/03/12 03:04:34;;;;;;;5.57;4.20;;;3.90;1.00;;;;;;5072441;28;20434;-58
2022/03/12 03:07:01;;;;;;;6.53;4.47;;;3.90;1.00;;;;;;5070721;28;20548;-59
2022/03/12 03:09:27;;;;;;;7.90;4.50;;;3.90;1.00;;;;;;5071550;28;20958;-58
2022/03/12 03:11:54;;;;;;;4.97;3.90;;;3.80;1.00;;;;;;5072834;28;20489;-58
2022/03/12 03:14:26;;;;;;;6.23;4.40;;;3.80;1.00;;;;;;5072380;28;20191;-58
2022/03/12 03:16:53;;;;;;;6.60;4.10;;;3.90;1.00;;;;;;5070606;28;20453;-59
2022/03/12 03:19:22;;;;;;;5.93;3.90;;;3.90;1.00;;;;;;5073778;28;20902;-58
2022/03/12 03:21:47;;;;;;;8.60;3.93;;;;;;;;;;5074715;28;20456;-57
2022/03/12 03:24:16;;;;;;;4.40;3.50;;;3.90;1.00;;;;;;5073695;28;20445;-61
2022/03/12 03:26:42;;;;;;;5.50;3.90;;;3.80;1.00;;;;;;5073915;28;20962;-58
2022/03/12 03:29:08;;;;;;;7.20;3.80;;;3.90;1.00;;;;;;5073593;28;20438;-60
2022/03/12 03:31:35;;;;;;;4.90;4.00;;;3.90;1.00;;;;;;5074081;28;20207;-59
2022/03/12 03:34:01;;;;;;;5.07;3.50;;;3.90;1.00;;;;;;5076236;28;20441;-58
2022/03/12 03:36:27;;;;;;;6.17;3.63;;;3.80;1.00;;;;;;5074276;28;20437;-59
2022/03/12 03:38:52;;;;;;;6.90;3.77;;;3.80;1.00;;;;;;5072606;28;20448;-59
2022/03/12 03:41:18;;;;;;;4.07;3.53;;;;;;;;;;5073922;28;20445;-59
2022/03/12 03:43:46;;;;;;;9.77;4.37;;;3.80;1.00;;;;;;5072563;28;20271;-60
2022/03/12 03:46:17;;;;;;;4.20;3.60;;;3.90;1.00;;;;;;5072944;28;20965;-58
2022/03/12 03:48:46;;;;;;;7.47;4.00;;;3.90;1.00;;;;;;5069904;28;20936;-58
2022/03/12 03:51:12;;;;;;;5.57;4.00;;;3.80;1.00;;;;;;5076346;28;20465;-59
2022/03/12 03:53:38;;;;;;;6.13;3.77;;;;;;;;;;5071233;28;20433;-58
2022/03/12 03:58:32;;;;;;;4.60;3.50;;;3.80;1.00;;;;;;5082106;28;20872;-58
2022/03/12 04:01:22;;;;;;;4.50;3.60;;;3.80;1.00;;;;;;5080219;28;20546;-59
2022/03/12 04:03:49;;;;;;;6.03;3.90;;;3.70;1.00;;;;;;5074415;28;20504;-62
2022/03/12 04:06:25;;;;;;;4.87;3.70;;;3.80;1.00;;;;;;5076167;28;20451;-59
2022/03/12 04:08:51;;;;;;;5.77;3.47;;;3.80;1.00;;;;;;5054023;28;20453;-59
2022/03/12 04:11:23;;;;;;;4.60;3.20;;;3.70;1.00;;;;;;5071462;28;20473;-59
2022/03/12 04:13:51;;;;;;;4.93;3.50;;;3.80;1.00;;;;;;5072177;28;20760;-59
2022/03/12 04:16:17;;;;;;;8.83;3.67;;;;;;;;;;5071414;28;20468;-59
2022/03/12 04:18:46;;;;;;;5.30;3.53;;;3.70;1.00;;;;;;5072267;28;20445;-58
2022/03/12 04:21:13;;;;;;;6.60;3.83;;;3.80;1.00;;;;;;5070094;28;20434;-60
2022/03/12 04:23:39;;;;;;;4.43;3.50;;;3.70;1.00;;;;;;5075806;28;20591;-60
2022/03/12 04:26:09;;;;;;;5.00;3.40;;;3.70;1.00;;;;;;5075754;28;20429;-57
2022/03/12 04:28:35;;;;;;;5.07;3.23;;;3.70;1.00;;;;;;5069581;28;20452;-59
2022/03/12 04:31:05;;;;;;;3.67;3.17;;;3.70;1.00;;;;;;5072951;28;20954;-59
2022/03/12 04:33:32;;;;;;;5.60;3.50;;;3.70;1.00;;;;;;5072540;28;20357;-58
2022/03/12 04:36:00;;;;;;;5.27;3.40;;;3.70;1.00;;;;;;5072987;28;20460;-59
2022/03/12 04:38:27;;;;;;;4.43;3.20;;;3.60;1.00;;;;;;5073514;28;20438;-60
2022/03/12 04:40:56;;;;;;;4.90;3.50;;;3.70;1.00;;;;;;5073986;28;20788;-60
2022/03/12 04:43:24;;;;;;;4.43;3.43;;;3.70;1.00;;;;;;5069625;28;20441;-59
2022/03/12 04:45:49;;;;;;;3.93;3.20;;;3.70;1.00;;;;;;5071988;28;20452;-59
2022/03/12 04:48:17;;;;;;;6.57;3.60;;;3.70;1.00;;;;;;5071415;28;20914;-60
2022/03/12 04:50:43;;;;;;;6.23;3.70;;;3.60;1.00;;;;;;5077185;28;20223;-60
2022/03/12 04:53:09;;;;;;;6.10;3.63;;;3.50;1.00;;;;;;5072652;28;20473;-59
2022/03/12 04:55:38;;;;;;;4.70;3.40;;;3.60;1.00;;;;;;5069833;28;20891;-59
2022/03/12 04:58:05;;;;;;;5.47;3.93;;;3.60;1.00;;;;;;5071272;28;20445;-59
2022/03/12 05:00:35;;;;;;;4.60;3.50;;;3.60;1.00;;;;;;5069894;28;20576;-59
2022/03/12 05:03:01;;;;;;;3.93;3.37;;;;;;;;;;5069976;28;20488;-59
2022/03/12 05:05:26;;;;;;;6.17;3.97;;;3.40;1.00;;;;;;5069639;28;20477;-59
2022/03/12 05:07:52;;;;;;;5.27;3.67;;;3.50;1.00;;;;;;5071660;28;20447;-58
2022/03/12 05:10:18;;;;;;;4.97;3.97;;;3.50;1.00;;;;;;5070288;28;20673;-59
2022/03/12 05:12:47;;;;;;;5.27;3.67;;;3.40;1.00;;;;;;5063283;28;20175;-60
2022/03/12 05:15:14;;;;;;;8.17;3.77;;;3.40;1.00;;;;;;5060848;28;20842;-59
2022/03/12 05:17:42;;;;;;;4.30;3.70;;;3.40;1.00;;;;;;5063965;28;20456;-57
2022/03/12 05:20:10;;;;;;;5.10;3.60;;;3.40;1.00;;;;;;5067688;28;20460;-59
2022/03/12 05:22:35;;;;;;;4.70;3.30;;;3.40;1.00;;;;;;5068773;28;20841;-60
2022/03/12 05:25:01;;;;;;;4.60;3.80;;;3.40;1.00;;;;;;5073966;28;20445;-58
2022/03/12 05:27:27;;;;;;;3.97;3.57;;;3.40;1.00;;;;;;5072602;28;20199;-58
2022/03/12 05:29:54;;;;;;;5.33;3.60;;;3.40;1.00;;;;;;5073256;28;20441;-59
2022/03/12 05:32:19;;;;;;;4.77;3.40;;;3.40;1.00;;;;;;5073877;28;20194;-59
2022/03/12 05:34:45;;;;;;;6.50;3.80;;;3.30;1.00;;;;;;5070948;28;20957;-57
2022/03/12 05:37:11;;;;;;;3.63;3.33;;;3.40;1.00;;;;;;5072582;28;20187;-59
2022/03/12 05:39:37;;;;;;;5.47;3.80;;;3.40;1.00;;;;;;5076446;28;20182;-59
2022/03/12 05:42:05;;;;;;;6.10;3.90;;;3.40;1.00;;;;;;5073513;28;20476;-58
2022/03/12 05:44:34;;;;;;;4.53;3.50;;;3.40;1.00;;;;;;5076960;28;21017;-58
2022/03/12 05:47:03;;;;;;;5.70;3.80;;;3.40;1.00;;;;;;5074038;28;20440;-60
2022/03/12 05:49:29;;;;;;;6.10;3.60;;;3.50;1.00;;;;;;5069162;28;20453;-58
2022/03/12 05:51:56;;;;;;;6.43;4.27;;;;;;;;;;5077192;28;21042;-58
2022/03/12 05:54:21;;;;;;;9.87;5.03;;;3.40;1.00;;;;;;5077420;28;20437;-58
2022/03/12 05:56:47;;;;;;;8.60;4.00;;;;;;;;;;5073979;28;20436;-58
2022/03/12 05:59:13;;;;;;;5.37;3.90;;;3.50;1.00;;;;;;5075436;28;20179;-58
2022/03/12 06:01:39;;;;;;;4.20;3.23;;;3.40;1.00;;;;;;5069904;28;20532;-60
2022/03/12 06:04:05;;;;;;;5.03;3.73;;;3.50;1.00;;;;;;5076045;28;20237;-59
2022/03/12 06:06:35;;;;;;;4.80;3.27;;;3.60;1.00;;;;;;5075087;28;20237;-59
2022/03/12 06:09:01;;;;;;;6.07;3.80;;;;;;;;;;5074262;28;20794;-58
2022/03/12 06:11:27;;;;;;;3.97;3.53;;;;;;;;;;5070021;28;20469;-59
2022/03/12 06:14:00;;;;;;;6.20;3.53;;;3.80;1.00;;;;;;5076878;28;20862;-58
2022/03/12 06:16:27;;;;;;;3.93;2.93;;;3.90;1.00;;;;;;5072829;28;20433;-59
2022/03/12 06:18:53;;;;;;;3.90;3.30;;;3.90;1.00;;;;;;5072894;28;20496;-57
2022/03/12 06:21:20;;;;;;;6.33;3.67;;;4.00;1.00;;;;;;5073627;28;20456;-59
2022/03/12 06:23:46;;;;;;;5.07;3.63;;;4.00;1.00;;;;;;5073266;28;20879;-59
2022/03/12 06:26:14;;;;;;;4.77;4.03;;;3.90;1.00;;;;;;5073792;28;20469;-60
2022/03/12 06:28:41;;;;;;;4.60;3.70;;;3.90;1.00;;;;;;5070418;28;20922;-60
2022/03/12 06:31:08;;;;;;;4.50;3.63;;;4.00;1.00;;;;;;5073160;28;20515;-59
2022/03/12 06:33:34;;;;;;;4.80;3.37;;;4.00;1.00;;;;;;5075173;28;20495;-60
2022/03/12 06:36:01;;;;;;;4.50;3.57;;;4.10;1.00;;;;;;5071716;28;20445;-59
2022/03/12 06:38:26;;;;;;;5.10;3.27;;;4.10;1.00;;;;;;5072100;28;20597;-62
2022/03/12 06:40:55;;;;;;;5.43;4.10;;;4.20;1.00;;;;;;5053216;28;20470;-60
2022/03/12 06:43:21;;;;;;;5.10;3.93;;;4.30;1.00;;;;;;5071609;28;20198;-59
2022/03/12 06:45:49;;;;;;;6.00;3.80;;;4.40;1.00;;;;;;5071192;28;20533;-59
2022/03/12 06:48:16;;;;;;;5.07;4.17;;;4.40;1.00;;;;;;5073327;28;20183;-59
2022/03/12 06:50:42;;;;;;;6.00;3.40;;;4.50;1.00;;;;;;5074109;28;20497;-58
2022/03/12 06:53:08;;;;;;;9.77;3.80;;;4.50;1.00;;;;;;5073277;28;20449;-59
2022/03/12 06:55:34;;;;;;;5.23;3.50;;;4.60;1.00;;;;;;5073277;28;20524;-60
2022/03/12 06:58:00;;;;;;;5.17;3.90;;;4.70;1.00;;;;;;5073234;28;20190;-60
2022/03/12 07:00:29;;;;;;;5.23;4.20;;;4.80;1.00;;;;;;5071987;28;20477;-60
2022/03/12 07:02:55;;;;;;;4.00;3.60;;;4.90;1.00;;;;;;5073449;28;20449;-59
2022/03/12 07:05:22;;;;;;;3.73;3.20;;;4.90;1.00;;;;;;5074996;28;20433;-59
2022/03/12 07:07:49;;;;;;;5.57;4.30;;;4.90;1.00;;;;;;5073127;28;20851;-59
2022/03/12 07:10:16;;;;;;;7.40;4.13;;;5.00;1.00;;;;;;5071372;28;20470;-59
2022/03/12 07:12:44;;;;;;;7.30;4.07;;;5.10;1.00;;;;;;5072928;28;20957;-60
2022/03/12 07:15:11;;;;;;;5.43;3.77;;;5.10;1.00;;;;;;5073750;28;20441;-59
2022/03/12 07:17:37;;;;;;;6.93;4.50;;;5.20;1.00;;;;;;5072393;28;20780;-59
2022/03/12 07:20:03;;;;;;;6.00;4.10;;;5.30;1.00;;;;;;5070773;28;20503;-59
2022/03/12 07:22:30;;;;;;;7.30;4.20;;;5.30;1.00;;;;;;5069690;28;20257;-59
2022/03/12 07:24:55;;;;;;;4.93;3.80;;;5.50;1.00;;;;;;5069929;28;20996;-58
2022/03/12 07:27:21;;;;;;;12.00;4.10;;;5.80;1.00;;;;;;5070769;28;20442;-59
2022/03/12 07:29:47;;;;;;;5.60;4.23;;;6.10;1.00;;;;;;5070335;28;20237;-58
2022/03/12 07:32:12;;;;;;;6.70;3.97;;;6.00;1.00;;;;;;5073400;28;20178;-60
2022/03/12 07:34:38;;;;;;;5.57;4.20;;;6.00;1.00;;;;;;5067417;28;20671;-60
2022/03/12 07:37:04;;;;;;;7.23;4.77;;;6.00;1.00;;;;;;5069468;28;20191;-61
2022/03/12 07:39:30;;;;;;;6.50;4.70;;;5.90;1.00;;;;;;5073243;28;20187;-59
2022/03/12 07:41:55;;;;;;;6.80;4.90;;;5.90;1.00;;;;;;5053403;28;20449;-64
2022/03/12 07:44:23;;;;;;;5.07;4.57;;;6.00;1.00;;;;;;5071209;28;20191;-59
2022/03/12 07:46:48;;;;;;;4.57;3.20;;;6.40;1.00;;;;;;5071442;28;20194;-57
2022/03/12 07:49:14;;;;;;;5.60;4.10;;;6.40;1.00;;;;;;5057861;28;20458;-58
2022/03/12 07:51:43;;;;;;;6.17;4.23;;;6.50;1.00;;;;;;5072117;28;20235;-59
2022/03/12 07:54:10;;;;;;;6.70;4.03;;;6.50;1.00;;;;;;5070809;28;20258;-59
2022/03/12 07:56:35;;;;;;;7.90;4.70;;;6.50;1.00;;;;;;5071950;28;20442;-59
2022/03/12 07:59:02;;;;;;;5.60;4.00;;;6.50;1.00;;;;;;5071394;28;20445;-59
2022/03/12 08:01:27;;;;;;;4.93;3.90;;;6.50;1.00;;;;;;5075652;28;20981;-58
2022/03/12 08:03:53;;;;;;;5.90;4.33;;;6.60;1.00;;;;;;5069800;28;20446;-58
2022/03/12 08:06:19;;;;;;;5.53;3.87;;;6.50;1.00;;;;;;5073572;28;20194;-58
2022/03/12 08:08:44;;;;;;;8.70;4.17;;;6.50;1.00;;;;;;5070698;28;20671;-59
2022/03/12 08:11:28;;;;;;;7.40;4.90;;;6.50;1.00;;;;;;5074916;28;20465;-60
2022/03/12 08:14:00;;;;;;;6.27;4.30;;;6.60;1.00;;;;;;5073296;28;20316;-59
2022/03/12 08:16:26;;;;;;;6.80;4.30;;;6.60;1.00;;;;;;5070941;28;20437;-59
2022/03/12 08:18:51;;;;;;;6.10;4.90;;;6.70;1.00;;;;;;5068230;28;20811;-59
2022/03/12 08:21:19;;;;;;;6.27;4.10;;;6.80;1.00;;;;;;5067985;28;20449;-60
2022/03/12 08:23:45;;;;;;;5.80;4.50;;;6.90;1.00;;;;;;5069177;28;20207;-59
2022/03/12 08:26:11;;;;;;;8.10;4.97;;;6.90;1.00;;;;;;5068977;28;20540;-59
2022/03/12 08:28:37;;;;;;;7.00;4.97;;;7.00;1.00;;;;;;5069823;28;20180;-60
2022/03/12 08:31:05;;;;;;;6.23;3.90;;;7.00;1.00;;;;;;5070411;28;20210;-59
2022/03/12 08:33:32;;;;;;;5.43;4.03;;;7.00;1.00;;;;;;5070158;28;20262;-60
2022/03/12 08:36:02;;;;;;;4.87;4.20;;;7.10;1.00;;;;;;5069901;28;20973;-59
2022/03/12 08:38:32;;;;;;;7.63;5.30;;;7.10;1.00;;;;;;5065048;28;20438;-58
2022/03/12 08:40:58;;;;;;;8.03;4.60;;;7.20;1.00;;;;;;5068441;28;20515;-59
2022/03/12 08:43:23;;;;;;;5.33;4.67;;;7.40;1.00;;;;;;5051974;28;20473;-59
2022/03/12 08:45:49;;;;;;;14.47;4.80;;;7.60;1.00;;;;;;5052021;28;20481;-59
2022/03/12 08:48:16;;;;;;;8.07;5.50;;;;;;;;;;5067900;28;20191;-60
2022/03/12 08:50:43;;;;;;;7.10;5.33;;;7.90;1.00;;;;;;5071472;28;20537;-59
2022/03/12 08:53:10;;;;;;;8.30;5.10;;;8.20;1.00;;;;;;5070615;28;20787;-59
2022/03/12 08:55:35;;;;;;;5.20;4.50;;;8.40;1.00;;;;;;5066922;28;20953;-59
2022/03/12 08:58:01;;;;;;;6.47;5.13;;;8.40;1.00;;;;;;5065151;28;20439;-59
2022/03/12 09:00:27;;;;;;;6.13;5.03;;;8.40;1.00;;;;;;5068362;28;20246;-59
2022/03/12 09:02:53;;;;;;;5.20;3.87;;;8.30;1.00;;;;;;5067996;28;20709;-59
2022/03/12 09:05:19;;;;;;;5.67;4.87;;;8.20;1.00;;;;;;5067342;28;20529;-60
2022/03/12 09:07:46;;;;;;;5.17;4.40;;;8.30;1.00;;;;;;5071213;28;20637;-60
2022/03/12 09:10:13;;;;;;;5.67;4.20;;;8.20;1.00;;;;;;5072040;28;20466;-60
2022/03/12 09:12:40;;;;;;;7.90;4.50;;;8.20;1.00;;;;;;5069240;28;20488;-58
2022/03/12 09:15:09;;;;;;;9.33;5.40;;;8.50;1.00;;;;;;5068789;28;20491;-60
2022/03/12 09:17:36;;;;;;;8.43;4.40;;;;;;;;;;5069468;28;20430;-59
2022/03/12 09:20:04;;;;;;;6.77;4.50;;;8.70;1.00;;;;;;5073538;28;20436;-58
2022/03/12 09:22:29;;;;;;;7.17;4.80;;;8.70;1.00;;;;;;5068779;28;20548;-60
2022/03/12 09:24:55;;;;;;;6.70;4.53;;;8.80;1.00;;;;;;5069785;28;20462;-58
2022/03/12 09:27:20;;;;;;;5.07;3.50;;;8.80;1.00;;;;;;5066480;28;20179;-60
2022/03/12 09:29:47;;;;;;;5.57;4.87;;;9.00;1.00;;;;;;5066175;28;20191;-59
2022/03/12 09:32:13;;;;;;;4.67;4.27;;;9.00;1.00;;;;;;5055490;28;20616;-60
2022/03/12 09:34:44;;;;;;;4.17;3.57;;;9.20;1.00;;;;;;5072085;28;20433;-60
2022/03/12 09:37:10;;;;;;;5.57;4.00;;;9.10;1.00;;;;;;5048749;28;20266;-60
2022/03/12 09:39:36;;;;;;;6.80;4.17;;;9.30;1.00;;;;;;5069678;28;20524;-62
2022/03/12 09:42:02;;;;;;;8.30;4.83;;;9.60;1.00;;;;;;5070012;28;20233;-59
2022/03/12 09:44:28;;;;;;;5.23;4.40;;;;;;;;;;5067797;28;20989;-59
2022/03/12 09:46:55;;;;;;;4.50;4.10;;;9.70;1.00;;;;;;5069001;28;20444;-58
2022/03/12 09:49:21;;;;;;;5.30;4.27;;;9.60;1.00;;;;;;5069343;28;20465;-60
2022/03/12 09:51:46;;;;;;;7.10;4.67;;;9.80;1.00;;;;;;5069684;28;20470;-59
2022/03/12 09:54:12;;;;;;;5.67;4.80;;;9.80;1.00;;;;;;5069481;28;20256;-60
2022/03/12 09:56:39;;;;;;;5.17;4.10;;;10.00;1.00;;;;;;5053585;28;20180;-60
2022/03/12 09:59:07;;;;;;;12.43;5.30;;;9.90;1.00;;;;;;5067121;28;21072;-60
2022/03/12 10:01:39;;;;;;;6.00;4.27;;;9.90;1.00;;;;;;5066147;28;20834;-58
2022/03/12 10:04:05;;;;;;;5.73;4.53;;;;;;;;;;5068074;28;20441;-59
2022/03/12 10:06:31;;;;;;;6.47;4.20;;;10.10;1.00;;;;;;5068910;28;20441;-60
2022/03/12 10:08:57;;;;;;;6.80;4.10;;;10.10;1.00;;;;;;5068900;28;20452;-59
2022/03/12 10:11:23;;;;;;;8.60;4.30;;;10.20;1.00;;;;;;5071212;28;20296;-60
2022/03/12 10:13:49;;;;;;;5.53;4.90;;;10.30;1.00;;;;;;5070746;28;20474;-60
2022/03/12 10:16:18;;;;;;;7.60;4.57;;;10.20;1.00;;;;;;5071418;28;20441;-60
2022/03/12 10:18:45;;;;;;;7.00;5.10;;;10.20;1.00;;;;;;5072517;28;20433;-61
2022/03/12 10:21:11;;;;;;;9.50;4.80;;;10.40;1.00;;;;;;5071846;28;20472;-59
2022/03/12 10:23:36;;;;;;;6.67;4.70;;;10.50;1.00;;;;;;5071292;28;20466;-60
2022/03/12 10:26:06;;;;;;;6.13;4.40;;;10.40;1.00;;;;;;5074134;28;20473;-59
2022/03/12 10:28:36;;;;;;;5.20;3.80;;;10.40;1.00;;;;;;5053308;28;20633;-59
2022/03/12 10:31:05;;;;;;;7.93;4.80;;;10.60;1.00;;;;;;5051514;28;20553;-60
2022/03/12 10:33:33;;;;;;;9.63;4.20;;;10.70;1.00;;;;;;5061353;28;21000;-61
2022/03/12 10:36:18;;;;;;;4.90;4.40;;;10.80;1.00;;;;;;5066682;28;20473;-62
2022/03/12 10:38:46;;;;;;;4.57;4.17;;;10.80;1.00;;;;;;5069428;28;20438;-61
2022/03/12 10:41:13;;;;;;;8.13;4.43;;;;;;;;;;5048769;28;20453;-62
2022/03/12 10:43:55;;;;;;;6.30;4.53;;;10.80;1.00;;;;;;5067395;28;20449;-62
2022/03/12 10:46:21;;;;;;;7.37;5.03;;;10.70;1.00;;;;;;5051377;28;20475;-61
2022/03/12 10:48:56;;;;;;;6.17;4.20;;;10.80;1.00;;;;;;5064166;28;20457;-61
2022/03/12 10:51:34;;;;;;;5.17;4.40;;;10.90;1.00;;;;;;5064624;28;20553;-59
2022/03/12 10:54:04;;;;;;;6.50;4.40;;;;;;;;;;5069698;28;20465;-62
2022/03/12 10:56:49;;;;;;;5.77;4.60;;;11.10;1.00;;;;;;5068171;28;20433;-60
2022/03/12 10:59:23;;;;;;;5.83;4.60;;;11.00;1.00;;;;;;5066812;28;20448;-61
2022/03/12 11:01:54;;;;;;;6.93;4.90;;;11.00;1.00;;;;;;5065864;28;20473;-61
2022/03/12 11:04:23;;;;;;;6.20;4.43;;;11.20;1.00;;;;;;5071456;28;20449;-62
2022/03/12 11:06:50;;;;;;;4.73;4.20;;;11.10;1.00;;;;;;5065456;28;21018;-60
2022/03/12 11:09:21;;;;;;;8.47;4.97;;;10.90;1.00;;;;;;5065812;28;20452;-61
2022/03/12 11:11:46;;;;;;;7.93;4.70;;;11.00;1.00;;;;;;5073218;28;20469;-62
2022/03/12 11:14:22;;;;;;;6.50;5.07;;;11.20;1.00;;;;;;5067522;28;20958;-61
2022/03/12 11:16:52;;;;;;;5.90;5.00;;;11.30;1.00;;;;;;5069846;28;20203;-61
2022/03/12 11:19:37;;;;;;;6.70;5.00;;;11.30;1.00;;;;;;5067385;28;20941;-60
2022/03/12 11:22:15;;;;;;;6.00;5.40;;;11.50;1.00;;;;;;5067423;28;20843;-59
2022/03/12 11:24:51;;;;;;;8.47;5.87;;;11.60;1.00;;;;;;5070789;28;20469;-60
2022/03/12 11:27:33;;;;;;;5.60;4.90;;;11.70;1.00;;;;;;5068447;28;20501;-58
2022/03/12 11:30:07;;;;;;;6.57;5.20;;;11.70;1.00;;;;;;5066707;28;20523;-61
2022/03/12 11:32:35;;;;;;;5.67;4.53;;;11.70;1.00;;;;;;5065715;28;20786;-59
2022/03/12 11:35:11;;;;;;;7.00;5.47;;;11.60;1.00;;;;;;5065277;28;20508;-62
2022/03/12 11:37:39;;;;;;;6.90;4.97;;;11.70;1.00;;;;;;5066258;28;20437;-62
2022/03/12 11:40:09;;;;;;;6.30;4.43;;;11.70;1.00;;;;;;5067386;28;20453;-62
2022/03/12 11:42:36;;;;;;;8.33;4.90;;;11.60;1.00;;;;;;5063352;28;20795;-59
2022/03/12 11:45:05;;;;;;;7.33;5.90;;;11.60;1.00;;;;;;5060880;28;20499;-60
2022/03/12 11:47:37;;;;;;;6.63;4.47;;;11.60;1.00;;;;;;5049450;28;20469;-59
2022/03/12 11:50:05;;;;;;;6.37;4.30;;;11.50;1.00;;;;;;5066101;28;20456;-59
2022/03/12 11:52:33;;;;;;;7.43;5.37;;;11.60;1.00;;;;;;5063806;28;20528;-61
2022/03/12 11:55:02;;;;;;;6.97;5.07;;;11.70;1.00;;;;;;5062913;28;20520;-60
2022/03/12 11:57:30;;;;;;;6.63;5.37;;;11.70;1.00;;;;;;5070335;28;20444;-60
2022/03/12 11:59:58;;;;;;;14.33;6.30;;;11.90;1.00;;;;;;5067516;28;20445;-60
2022/03/12 12:02:33;;;;;;;7.90;4.47;;;11.90;1.00;;;;;;5071497;28;20962;-61
2022/03/12 12:05:13;;;;;;;7.30;4.97;;;12.00;1.00;;;;;;5071274;28;20436;-60
2022/03/12 12:07:43;;;;;;;6.03;5.13;;;12.10;1.00;;;;;;5068226;28;20448;-59
2022/03/12 12:10:17;;;;;;;6.20;4.90;;;12.10;1.00;;;;;;5073066;28;20441;-61
2022/03/12 12:12:46;;;;;;;5.80;4.90;;;12.00;1.00;;;;;;5070830;28;20429;-61
2022/03/12 12:15:19;;;;;;;9.70;5.40;;;12.10;1.00;;;;;;5069591;28;20517;-61
2022/03/12 12:17:47;;;;;;;6.03;4.90;;;12.00;1.00;;;;;;5069746;28;20795;-62
2022/03/12 12:20:15;;;;;;;7.27;5.47;;;12.00;1.00;;;;;;5070286;28;20441;-60
2022/03/12 12:22:41;;;;;;;7.27;5.33;;;12.00;1.00;;;;;;5070391;28;20445;-61
2022/03/12 12:25:09;;;;;;;6.10;4.73;;;12.10;1.00;;;;;;5070806;28;20448;-60
2022/03/12 12:27:46;;;;;;;6.30;5.40;;;11.90;1.00;;;;;;5069069;28;20452;-61
2022/03/12 12:30:38;;;;;;;8.67;6.70;;;11.90;1.00;;;;;;5065104;28;20446;-60
2022/03/12 12:33:17;;;;;;;4.87;4.47;;;12.00;1.00;;;;;;5067132;28;20497;-62
2022/03/12 12:35:44;;;;;;;6.23;4.80;;;12.00;1.00;;;;;;5070897;28;20458;-61
2022/03/12 12:38:11;;;;;;;8.80;5.40;;;12.10;1.00;;;;;;5070709;28;20437;-62
2022/03/12 12:40:53;;;;;;;6.63;4.90;;;12.00;1.00;;;;;;5070063;28;20516;-61
2022/03/12 12:43:21;;;;;;;6.10;5.20;;;11.90;1.00;;;;;;5064119;28;20906;-62
2022/03/12 12:46:00;;;;;;;5.83;4.60;;;12.00;1.00;;;;;;5065991;28;20448;-61
2022/03/12 12:48:38;;;;;;;5.93;5.43;;;12.00;1.00;;;;;;5065576;28;20918;-62
2022/03/12 12:51:11;;;;;;;8.47;5.47;;;12.30;1.00;;;;;;5067076;28;20472;-62
2022/03/12 12:53:40;;;;;;;8.60;5.10;;;12.30;1.00;;;;;;5069475;28;20447;-62
2022/03/12 12:56:21;;;;;;;7.20;4.70;;;12.20;1.00;;;;;;5070299;28;20469;-62
2022/03/12 12:58:47;;;;;;;6.10;5.20;;;;;;;;;;5067712;28;20434;-61
2022/03/12 13:01:19;;;;;;;6.23;4.80;;;12.20;1.00;;;;;;5066547;28;20479;-61
2022/03/12 13:03:54;;;;;;;7.00;5.20;;;12.30;1.00;;;;;;5068578;28;20473;-62
2022/03/12 13:06:39;;;;;;;7.10;5.10;;;12.30;1.00;;;;;;5069384;28;20967;-62
2022/03/12 13:09:12;;;;;;;5.30;4.80;;;12.40;1.00;;;;;;5052416;28;20457;-61
2022/03/12 13:11:46;;;;;;;6.97;5.23;;;12.40;1.00;;;;;;5052140;28;20457;-63
2022/03/12 13:14:18;;;;;;;5.10;4.50;;;12.40;1.00;;;;;;5070288;28;20510;-63
2022/03/12 13:17:04;;;;;;;7.33;5.77;;;12.40;1.00;;;;;;5069668;28;20448;-61
2022/03/12 13:19:35;;;;;;;10.10;5.77;;;12.50;1.00;;;;;;5073427;28;20446;-60